createdAt,value
2022-12-01T00:01:02.554Z,11.20
2022-12-01T00:06:12.925Z,11.00
2022-12-01T00:11:16.418Z,11.10
2022-12-01T00:16:20.016Z,11.50
2022-12-01T00:21:24.969Z,15.40
2022-12-01T00:26:28.586Z,13.00
2022-12-01T00:31:31.883Z,18.30
2022-12-01T00:36:36.212Z,16.70
2022-12-01T00:41:40.115Z,11.80
2022-12-01T00:46:43.761Z,11.90
2022-12-01T00:51:47.825Z,15.30
2022-12-01T00:56:51.501Z,15.30
2022-12-01T01:01:55.307Z,16.10
2022-12-01T01:06:59.380Z,17.40
2022-12-01T01:12:03.037Z,14.60
2022-12-01T01:17:06.423Z,16.50
2022-12-01T01:22:10.112Z,15.70
2022-12-01T01:27:16.382Z,15.80
2022-12-01T01:32:19.561Z,13.70
2022-12-01T01:37:23.170Z,15.10
2022-12-01T01:42:26.620Z,14.00
2022-12-01T01:47:41.132Z,15.00
2022-12-01T01:52:52.425Z,11.30
2022-12-01T01:57:56.985Z,13.30
2022-12-01T02:03:01.558Z,14.70
2022-12-01T02:08:12.829Z,16.60
2022-12-01T02:13:19.394Z,15.40
2022-12-01T02:19:18.419Z,13.80
2022-12-01T02:24:50.754Z,14.80
2022-12-01T02:30:19.584Z,16.50
2022-12-01T02:35:50.824Z,13.70
2022-12-01T02:41:20.482Z,12.40
2022-12-01T02:46:30.868Z,11.90
2022-12-01T02:51:36.910Z,15.10
2022-12-01T02:56:40.215Z,12.50
2022-12-01T03:01:54.703Z,13.70
2022-12-01T03:07:33.777Z,11.80
2022-12-01T03:13:03.984Z,11.20
2022-12-01T03:18:19.704Z,12.20
2022-12-01T03:23:28.915Z,11.90
2022-12-01T03:28:38.056Z,12.00
2022-12-01T03:33:49.491Z,13.40
2022-12-01T03:38:57.469Z,11.60
2022-12-01T03:44:11.454Z,12.10
2022-12-01T03:49:18.643Z,12.00
2022-12-01T03:54:47.685Z,13.00
2022-12-01T03:59:52.150Z,12.70
2022-12-01T04:04:55.369Z,12.60
2022-12-01T04:09:58.768Z,12.80
2022-12-01T04:15:06.757Z,13.30
2022-12-01T04:25:14.500Z,13.80
2022-12-01T04:30:18.703Z,17.10
2022-12-01T04:35:22.696Z,18.50
2022-12-01T04:40:26.370Z,17.50
2022-12-01T04:45:29.864Z,16.20
2022-12-01T04:50:33.511Z,16.90
2022-12-01T04:55:39.758Z,17.50
2022-12-01T05:00:43.715Z,15.10
2022-12-01T05:05:47.705Z,15.60
2022-12-01T05:10:56.830Z,19.00
2022-12-01T05:16:08.422Z,17.70
2022-12-01T05:21:11.898Z,16.80
2022-12-01T05:26:15.688Z,18.80
2022-12-01T05:31:19.094Z,18.00
2022-12-01T05:36:22.359Z,19.20
2022-12-01T05:41:25.491Z,19.00
2022-12-01T05:46:28.817Z,20.90
2022-12-01T05:51:32.442Z,23.70
2022-12-01T05:56:36.194Z,23.50
2022-12-01T06:01:40.184Z,23.10
2022-12-01T06:06:43.690Z,24.30
2022-12-01T06:11:52.262Z,21.00
2022-12-01T06:16:56.496Z,19.10
2022-12-01T06:21:59.929Z,18.90
2022-12-01T06:27:03.699Z,21.30
2022-12-01T06:32:08.661Z,17.10
2022-12-01T06:37:16.580Z,17.80
2022-12-01T06:42:21.545Z,22.20
2022-12-01T06:47:27.274Z,17.20
2022-12-01T06:52:32.645Z,17.40
2022-12-01T06:57:39.859Z,18.10
2022-12-01T07:02:44.331Z,16.70
2022-12-01T07:07:53.778Z,17.30
2022-12-01T07:13:01.360Z,15.60
2022-12-01T07:18:06.090Z,15.70
2022-12-01T07:23:11.453Z,14.80
2022-12-01T07:28:17.045Z,17.70
2022-12-01T07:33:21.856Z,14.20
2022-12-01T07:38:28.634Z,15.90
2022-12-01T07:43:33.535Z,15.90
2022-12-01T07:48:39.102Z,15.10
2022-12-01T07:53:46.161Z,14.80
2022-12-01T07:58:50.138Z,14.70
2022-12-01T08:03:57.450Z,13.70
2022-12-01T08:09:01.563Z,16.20
2022-12-01T08:14:05.682Z,14.70
2022-12-01T08:19:11.261Z,15.90
2022-12-01T08:24:15.750Z,18.40
2022-12-01T08:29:20.470Z,14.50
2022-12-01T08:34:24.006Z,13.00
2022-12-01T08:39:28.747Z,15.10
2022-12-01T08:44:31.955Z,15.20
2022-12-01T08:49:35.487Z,15.30
2022-12-01T08:54:38.722Z,12.70
2022-12-01T08:59:46.030Z,15.80
2022-12-01T09:04:53.083Z,14.00
2022-12-01T09:09:57.510Z,14.60
2022-12-01T09:15:01.311Z,13.60
2022-12-01T09:20:05.587Z,11.90
2022-12-01T09:25:15.363Z,14.20
2022-12-01T09:30:20.422Z,10.40
2022-12-01T09:35:25.255Z,12.00
2022-12-01T09:40:34.954Z,12.00
2022-12-01T09:45:45.105Z,11.40
2022-12-01T09:50:49.066Z,10.70
2022-12-01T09:56:03.080Z,12.90
2022-12-01T10:01:19.814Z,8.90
2022-12-01T10:06:59.652Z,10.20
2022-12-01T10:12:28.296Z,8.90
2022-12-01T10:17:47.341Z,8.60
2022-12-01T10:23:02.434Z,15.10
2022-12-01T10:28:32.158Z,9.70
2022-12-01T10:33:46.184Z,11.50
2022-12-01T10:38:51.153Z,9.40
2022-12-01T10:44:01.818Z,10.50
2022-12-01T10:49:18.522Z,11.60
2022-12-01T10:54:31.648Z,10.50
2022-12-01T10:59:51.383Z,8.10
2022-12-01T11:05:01.437Z,10.80
2022-12-01T11:10:24.972Z,9.00
2022-12-01T11:15:40.185Z,9.80
2022-12-01T11:20:44.319Z,10.30
2022-12-01T11:26:12.267Z,12.00
2022-12-01T11:31:17.823Z,10.30
2022-12-01T11:36:33.009Z,12.50
2022-12-01T11:41:41.322Z,10.80
2022-12-01T11:46:55.771Z,12.70
2022-12-01T11:52:31.779Z,15.20
2022-12-01T11:57:36.644Z,15.90
2022-12-01T12:03:09.923Z,13.60
2022-12-01T12:08:34.801Z,15.80
2022-12-01T12:13:46.047Z,14.90
2022-12-01T12:19:18.442Z,13.90
2022-12-01T12:24:41.904Z,14.60
2022-12-01T12:30:14.377Z,15.60
2022-12-01T12:35:30.118Z,14.20
2022-12-01T12:40:42.936Z,15.40
2022-12-01T12:46:04.272Z,13.60
2022-12-01T12:51:20.877Z,15.90
2022-12-01T12:56:27.146Z,15.10
2022-12-01T13:01:40.644Z,14.60
2022-12-01T13:06:53.291Z,19.30
2022-12-01T13:12:27.838Z,18.10
2022-12-01T13:17:41.004Z,17.30
2022-12-01T13:22:47.600Z,16.80
2022-12-01T13:27:53.641Z,16.40
2022-12-01T13:33:05.636Z,18.70
2022-12-01T13:38:34.249Z,19.60
2022-12-01T13:43:45.488Z,19.00
2022-12-01T13:48:49.650Z,16.00
2022-12-01T13:54:25.890Z,13.30
2022-12-01T14:00:00.440Z,9.80
2022-12-01T14:05:23.495Z,13.90
2022-12-01T14:10:31.945Z,19.30
2022-12-01T14:15:43.976Z,15.90
2022-12-01T14:20:49.738Z,15.40
2022-12-01T14:26:21.352Z,16.80
2022-12-01T14:31:47.360Z,14.60
2022-12-01T14:36:56.950Z,17.50
2022-12-01T14:42:04.471Z,14.20
2022-12-01T14:47:12.383Z,14.90
2022-12-01T14:52:24.338Z,15.00
2022-12-01T14:57:45.006Z,20.10
2022-12-01T15:02:59.417Z,19.60
2022-12-01T15:13:54.887Z,7.80
2022-12-01T15:19:00.066Z,11.60
2022-12-01T15:24:24.580Z,15.30
2022-12-01T15:29:45.860Z,19.30
2022-12-01T15:34:53.461Z,17.70
2022-12-01T15:40:47.743Z,16.00
2022-12-01T15:46:02.350Z,16.50
2022-12-01T15:51:09.199Z,16.00
2022-12-01T15:56:13.291Z,16.50
2022-12-01T16:01:21.518Z,19.30
2022-12-01T16:06:29.083Z,22.20
2022-12-01T16:12:08.303Z,22.40
2022-12-01T16:17:11.987Z,22.40
2022-12-01T16:22:21.713Z,20.30
2022-12-01T16:27:28.657Z,19.50
2022-12-01T16:32:41.590Z,18.70
2022-12-01T16:37:45.604Z,20.60
2022-12-01T16:42:50.426Z,23.10
2022-12-01T16:47:55.145Z,20.90
2022-12-01T16:52:58.466Z,20.00
2022-12-01T16:58:02.201Z,21.70
2022-12-01T17:03:08.278Z,22.10
2022-12-01T17:08:12.825Z,18.40
2022-12-01T17:13:18.712Z,20.60
2022-12-01T17:18:24.082Z,22.80
2022-12-01T17:23:29.204Z,18.90
2022-12-01T17:28:34.198Z,19.30
2022-12-01T17:33:39.171Z,19.90
2022-12-01T17:38:52.403Z,20.10
2022-12-01T17:43:56.520Z,17.70
2022-12-01T17:48:59.934Z,16.40
2022-12-01T17:54:05.074Z,15.10
2022-12-01T17:59:09.105Z,18.70
2022-12-01T18:04:12.910Z,17.30
2022-12-01T18:09:17.439Z,17.00
2022-12-01T18:14:21.739Z,15.80
2022-12-01T18:19:26.698Z,17.00
2022-12-01T18:24:30.629Z,17.50
2022-12-01T18:29:35.888Z,18.50
2022-12-01T18:34:40.241Z,20.10
2022-12-01T18:39:45.225Z,19.60
2022-12-01T18:44:50.222Z,19.60
2022-12-01T18:49:55.666Z,18.60
2022-12-01T18:55:00.514Z,18.90
2022-12-01T19:00:06.829Z,20.40
2022-12-01T19:05:11.087Z,19.20
2022-12-01T19:10:16.665Z,19.10
2022-12-01T19:15:21.715Z,16.90
2022-12-01T19:20:26.283Z,22.10
2022-12-01T19:25:30.624Z,20.30
2022-12-01T19:30:35.839Z,21.70
2022-12-01T19:35:40.781Z,20.60
2022-12-01T19:40:45.146Z,22.90
2022-12-01T19:45:49.707Z,24.20
2022-12-01T19:50:53.807Z,22.80
2022-12-01T19:56:04.135Z,19.00
2022-12-01T20:01:19.237Z,24.40
2022-12-01T20:06:29.005Z,21.90
2022-12-01T20:11:36.972Z,21.30
2022-12-01T20:16:41.108Z,22.20
2022-12-01T20:21:45.740Z,21.80
2022-12-01T20:30:42.435Z,21.50
2022-12-01T20:35:46.837Z,23.40
2022-12-01T20:40:53.391Z,21.40
2022-12-01T20:45:58.840Z,21.90
2022-12-01T20:51:06.033Z,16.20
2022-12-01T20:56:12.608Z,20.20
2022-12-01T21:01:18.679Z,16.10
2022-12-01T21:06:23.250Z,17.70
2022-12-01T21:11:49.699Z,19.10
2022-12-01T21:16:59.008Z,19.90
2022-12-01T21:22:11.491Z,14.20
2022-12-01T21:27:18.838Z,13.00
2022-12-01T21:32:31.071Z,18.00
2022-12-01T21:37:35.918Z,18.50
2022-12-01T21:42:39.914Z,18.50
2022-12-01T21:47:43.740Z,17.20
2022-12-01T21:52:48.309Z,15.70
2022-12-01T21:57:53.521Z,16.60
2022-12-01T22:03:25.108Z,13.80
2022-12-01T22:08:36.339Z,15.40
2022-12-01T22:14:36.303Z,12.90
2022-12-01T22:19:44.962Z,12.60
2022-12-01T22:24:52.944Z,13.40
2022-12-01T22:30:20.836Z,13.40
2022-12-01T22:35:43.011Z,14.90
2022-12-01T22:40:49.856Z,10.50
2022-12-01T22:46:01.290Z,12.60
2022-12-01T22:51:17.263Z,9.60
2022-12-01T22:56:36.960Z,10.40
2022-12-01T23:01:48.594Z,14.80
2022-12-01T23:06:54.872Z,10.50
2022-12-01T23:12:21.438Z,10.10
2022-12-01T23:17:28.896Z,11.20
2022-12-01T23:22:32.698Z,12.40
2022-12-01T23:27:38.452Z,13.20
2022-12-01T23:32:43.431Z,12.10
2022-12-01T23:37:48.382Z,12.20
2022-12-01T23:42:52.293Z,10.00
2022-12-01T23:47:57.099Z,10.90
2022-12-01T23:53:05.005Z,9.50
2022-12-01T23:58:16.181Z,11.30
